createdAt,value
2019-03-06T00:03:31.800Z,7.90
2019-03-06T00:08:33.738Z,7.67
2019-03-06T00:13:35.761Z,7.93
2019-03-06T00:18:37.731Z,7.87
2019-03-06T00:23:39.888Z,8.30
2019-03-06T00:28:41.995Z,8.13
2019-03-06T00:33:43.988Z,8.63
2019-03-06T00:38:45.861Z,8.57
2019-03-06T00:43:47.772Z,8.57
2019-03-06T00:48:50.617Z,8.30
2019-03-06T00:53:52.556Z,8.17
2019-03-06T00:58:54.768Z,8.10
2019-03-06T01:03:56.781Z,7.63
2019-03-06T01:08:58.740Z,8.23
2019-03-06T01:14:00.743Z,8.07
2019-03-06T01:19:02.740Z,7.97
2019-03-06T01:24:04.697Z,7.87
2019-03-06T01:29:07.364Z,8.23
2019-03-06T01:34:29.345Z,8.10
2019-03-06T01:39:51.497Z,8.77
2019-03-06T01:44:59.395Z,8.00
2019-03-06T01:50:01.293Z,8.07
2019-03-06T01:55:03.780Z,8.03
2019-03-06T02:00:08.004Z,8.70
2019-03-06T02:05:10.568Z,8.67
2019-03-06T02:10:13.152Z,9.40
2019-03-06T02:15:15.623Z,8.80
2019-03-06T02:20:17.612Z,8.93
2019-03-06T02:25:19.495Z,10.07
2019-03-06T02:30:21.587Z,10.53
2019-03-06T02:35:24.400Z,11.27
2019-03-06T02:40:26.893Z,10.20
2019-03-06T02:45:29.131Z,10.53
2019-03-06T02:50:31.565Z,11.87
2019-03-06T02:55:33.889Z,10.87
2019-03-06T03:00:50.072Z,10.60
2019-03-06T03:05:59.602Z,11.17
2019-03-06T03:11:02.412Z,11.07
2019-03-06T03:16:04.485Z,11.20
2019-03-06T03:21:06.401Z,11.70
2019-03-06T03:26:08.673Z,12.77
2019-03-06T03:31:10.730Z,12.13
2019-03-06T03:36:12.711Z,11.70
2019-03-06T03:41:14.559Z,12.50
2019-03-06T03:46:17.034Z,12.47
2019-03-06T03:51:19.568Z,12.97
2019-03-06T03:56:22.702Z,13.10
2019-03-06T04:01:24.705Z,12.40
2019-03-06T04:06:26.767Z,12.60
2019-03-06T04:11:30.068Z,13.47
2019-03-06T04:16:32.170Z,13.03
2019-03-06T04:21:34.754Z,13.33
2019-03-06T04:26:37.270Z,13.40
2019-03-06T04:31:39.201Z,12.70
2019-03-06T04:36:41.129Z,13.17
2019-03-06T04:41:43.272Z,13.17
2019-03-06T04:46:45.192Z,12.63
2019-03-06T04:51:48.111Z,13.77
2019-03-06T04:56:50.462Z,12.97
2019-03-06T05:01:53.058Z,13.07
2019-03-06T05:06:55.230Z,12.60
2019-03-06T05:11:57.941Z,12.97
2019-03-06T05:17:13.977Z,13.07
2019-03-06T05:22:16.540Z,13.37
2019-03-06T05:27:18.448Z,12.87
2019-03-06T05:32:31.317Z,12.67
2019-03-06T05:38:09.266Z,12.80
2019-03-06T05:43:11.831Z,11.80
2019-03-06T05:48:14.136Z,12.80
2019-03-06T05:53:16.066Z,11.37
2019-03-06T05:58:18.708Z,12.17
2019-03-06T06:03:21.425Z,11.97
2019-03-06T06:08:24.671Z,12.23
2019-03-06T06:13:26.561Z,12.73
2019-03-06T06:18:28.502Z,11.53
2019-03-06T06:23:46.740Z,13.10
2019-03-06T06:28:49.141Z,12.23
2019-03-06T06:33:51.069Z,12.57
2019-03-06T06:38:53.297Z,12.70
2019-03-06T06:43:55.201Z,13.20
2019-03-06T06:48:57.452Z,12.97
2019-03-06T06:54:08.644Z,13.20
2019-03-06T06:59:54.564Z,13.00
2019-03-06T07:05:21.964Z,12.33
2019-03-06T07:10:40.047Z,13.00
2019-03-06T07:16:10.704Z,13.47
2019-03-06T07:21:23.884Z,15.73
2019-03-06T07:26:36.748Z,14.17
2019-03-06T07:31:58.604Z,14.30
2019-03-06T07:37:09.985Z,13.97
2019-03-06T07:42:35.207Z,11.83
2019-03-06T07:47:44.770Z,12.00
2019-03-06T07:53:42.993Z,12.17
2019-03-06T07:58:50.478Z,11.57
2019-03-06T08:04:07.383Z,11.27
2019-03-06T08:09:14.568Z,11.33
2019-03-06T08:14:34.676Z,11.40
2019-03-06T08:19:51.337Z,11.50
2019-03-06T08:25:15.589Z,10.43
2019-03-06T08:30:17.765Z,10.60
2019-03-06T08:35:20.288Z,9.93
2019-03-06T08:40:22.124Z,9.83
2019-03-06T08:45:26.777Z,9.00
2019-03-06T08:51:06.671Z,9.43
2019-03-06T08:56:37.326Z,9.60
2019-03-06T09:01:46.836Z,8.60
2019-03-06T09:06:57.568Z,9.03
2019-03-06T09:12:15.756Z,8.37
2019-03-06T09:17:30.661Z,8.47
2019-03-06T09:22:42.242Z,9.27
2019-03-06T09:28:20.667Z,8.40
2019-03-06T09:33:34.561Z,8.47
2019-03-06T09:38:42.927Z,7.60
2019-03-06T09:43:53.821Z,7.77
2019-03-06T09:49:10.839Z,7.87
2019-03-06T09:54:23.753Z,7.23
2019-03-06T09:59:51.252Z,7.33
2019-03-06T10:05:01.340Z,7.50
2019-03-06T10:10:23.518Z,6.90
2019-03-06T10:15:41.297Z,8.10
2019-03-06T10:20:52.029Z,6.27
2019-03-06T10:25:54.156Z,6.77
2019-03-06T10:31:02.501Z,6.90
2019-03-06T10:36:00.733Z,6.63
2019-03-06T10:41:03.469Z,7.00
2019-03-06T10:46:05.933Z,6.87
2019-03-06T10:51:08.412Z,6.47
2019-03-06T10:56:10.805Z,6.20
2019-03-06T11:01:13.108Z,5.80
2019-03-06T11:06:16.228Z,5.83
2019-03-06T11:11:18.389Z,5.53
2019-03-06T11:16:20.880Z,5.50
2019-03-06T11:21:23.364Z,5.07
2019-03-06T11:26:25.877Z,5.20
2019-03-06T11:31:28.245Z,5.63
2019-03-06T11:36:30.264Z,5.40
2019-03-06T11:41:32.920Z,4.90
2019-03-06T11:46:34.972Z,5.77
2019-03-06T11:51:36.871Z,5.33
2019-03-06T11:56:39.687Z,5.77
2019-03-06T12:01:47.870Z,5.33
2019-03-06T12:06:47.365Z,5.07
2019-03-06T12:11:49.816Z,5.43
2019-03-06T12:16:52.920Z,5.17
2019-03-06T12:21:55.924Z,4.93
2019-03-06T12:26:57.841Z,5.00
2019-03-06T12:32:00.055Z,4.93
2019-03-06T12:37:02.253Z,4.77
2019-03-06T12:42:13.776Z,4.43
2019-03-06T12:47:10.865Z,5.00
2019-03-06T12:52:12.548Z,4.43
2019-03-06T12:57:14.796Z,4.17
2019-03-06T13:02:16.986Z,4.13
2019-03-06T13:07:19.010Z,4.60
2019-03-06T13:12:21.268Z,3.70
2019-03-06T13:17:24.048Z,3.70
2019-03-06T13:22:26.455Z,3.83
2019-03-06T13:27:28.608Z,3.77
2019-03-06T13:32:44.842Z,3.60
2019-03-06T13:37:46.899Z,3.53
2019-03-06T13:42:49.230Z,2.87
2019-03-06T13:47:52.104Z,3.23
2019-03-06T13:52:55.225Z,3.00
2019-03-06T13:57:57.428Z,3.00
2019-03-06T14:02:59.744Z,2.83
2019-03-06T14:08:02.156Z,2.63
2019-03-06T14:13:04.323Z,2.90
2019-03-06T14:18:08.345Z,3.23
2019-03-06T14:23:10.904Z,2.93
2019-03-06T14:28:15.862Z,2.93
2019-03-06T14:33:18.073Z,2.57
2019-03-06T14:38:20.788Z,2.80
2019-03-06T14:43:23.292Z,3.00
2019-03-06T14:48:25.324Z,3.20
2019-03-06T14:53:27.372Z,3.17
2019-03-06T14:58:29.876Z,3.00
2019-03-06T15:03:32.181Z,3.30
2019-03-06T15:08:34.440Z,4.30
2019-03-06T15:13:36.945Z,3.40
2019-03-06T15:18:39.141Z,3.43
2019-03-06T15:23:41.368Z,4.20
2019-03-06T15:28:43.615Z,4.00
2019-03-06T15:33:45.620Z,4.20
2019-03-06T15:38:47.832Z,3.93
2019-03-06T15:43:49.968Z,3.63
2019-03-06T15:48:52.027Z,4.30
2019-03-06T15:53:54.470Z,4.40
2019-03-06T15:58:56.475Z,4.30
2019-03-06T16:03:58.516Z,5.20
2019-03-06T16:09:00.724Z,4.90
2019-03-06T16:14:02.874Z,5.00
2019-03-06T16:19:05.177Z,4.53
2019-03-06T16:24:07.153Z,4.67
2019-03-06T16:29:10.179Z,5.50
2019-03-06T16:34:12.188Z,5.10
2019-03-06T16:39:14.165Z,6.50
2019-03-06T16:44:17.368Z,6.27
2019-03-06T16:49:20.082Z,6.33
2019-03-06T16:54:22.340Z,6.93
2019-03-06T16:59:24.863Z,7.00
2019-03-06T17:04:26.781Z,6.97
2019-03-06T17:09:28.877Z,7.13
2019-03-06T17:14:31.689Z,7.67
2019-03-06T17:19:33.824Z,7.77
2019-03-06T17:24:36.009Z,8.17
2019-03-06T17:29:38.053Z,8.50
2019-03-06T17:34:40.448Z,8.40
2019-03-06T17:39:42.387Z,8.27
2019-03-06T17:44:45.524Z,8.70
2019-03-06T17:49:48.419Z,9.37
2019-03-06T17:54:50.218Z,8.97
2019-03-06T17:59:52.206Z,8.63
2019-03-06T18:04:54.353Z,9.40
2019-03-06T18:09:57.375Z,8.67
2019-03-06T18:14:59.332Z,8.87
2019-03-06T18:20:01.425Z,8.07
2019-03-06T18:25:04.852Z,7.77
2019-03-06T18:30:08.961Z,7.20
2019-03-06T18:35:11.645Z,8.40
2019-03-06T18:40:15.192Z,7.60
2019-03-06T18:45:17.665Z,7.93
2019-03-06T18:50:19.866Z,7.37
2019-03-06T18:55:22.045Z,7.53
2019-03-06T19:00:24.560Z,7.03
2019-03-06T19:05:27.153Z,6.20
2019-03-06T19:10:29.747Z,6.67
2019-03-06T19:15:31.759Z,6.67
2019-03-06T19:20:34.235Z,5.83
2019-03-06T19:25:37.125Z,6.47
2019-03-06T19:30:39.508Z,5.83
2019-03-06T19:35:41.821Z,5.63
2019-03-06T19:40:44.164Z,5.80
2019-03-06T19:45:46.315Z,5.17
2019-03-06T19:50:48.873Z,5.47
2019-03-06T19:55:51.271Z,5.53
2019-03-06T20:00:53.719Z,5.60
2019-03-06T20:05:55.954Z,5.93
2019-03-06T20:10:58.564Z,5.70
2019-03-06T20:16:01.117Z,4.93
2019-03-06T20:21:03.113Z,5.37
2019-03-06T20:26:13.978Z,5.10
2019-03-06T20:31:11.706Z,11.73
2019-03-06T20:36:13.724Z,5.43
2019-03-06T20:41:16.405Z,4.83
2019-03-06T20:46:22.280Z,5.30
2019-03-06T20:51:24.216Z,5.03
2019-03-06T20:56:26.750Z,4.87
2019-03-06T21:01:29.672Z,5.00
2019-03-06T21:06:33.771Z,5.47
2019-03-06T21:11:36.392Z,5.00
2019-03-06T21:16:38.549Z,4.70
2019-03-06T21:21:40.483Z,4.80
2019-03-06T21:26:42.378Z,5.00
2019-03-06T21:31:45.134Z,4.90
2019-03-06T21:36:47.126Z,4.90
2019-03-06T21:41:50.091Z,5.40
2019-03-06T21:46:51.966Z,4.90
2019-03-06T21:51:53.895Z,4.93
2019-03-06T21:56:56.892Z,4.67
2019-03-06T22:01:58.817Z,4.83
2019-03-06T22:07:00.792Z,5.40
2019-03-06T22:12:03.057Z,5.50
2019-03-06T22:17:05.236Z,5.03
2019-03-06T22:22:07.709Z,4.83
2019-03-06T22:27:10.488Z,4.83
2019-03-06T22:32:12.420Z,5.00
2019-03-06T22:37:14.421Z,5.07
2019-03-06T22:42:17.526Z,5.13
2019-03-06T22:47:20.040Z,5.33
2019-03-06T22:52:23.178Z,5.30
2019-03-06T22:57:25.292Z,5.60
2019-03-06T23:02:27.628Z,5.80
2019-03-06T23:07:30.342Z,5.10
2019-03-06T23:12:32.928Z,5.33
2019-03-06T23:17:35.420Z,5.10
2019-03-06T23:22:37.688Z,5.47
2019-03-06T23:27:39.925Z,5.30
2019-03-06T23:32:42.772Z,5.90
2019-03-06T23:37:44.885Z,5.23
2019-03-06T23:42:48.042Z,5.53
2019-03-06T23:47:50.781Z,6.17
2019-03-06T23:53:04.221Z,5.70
2019-03-06T23:58:06.585Z,6.07
